createdAt,value
2019-05-07T00:01:54.983Z,100130.34
2019-05-07T00:04:25.272Z,100132.18
2019-05-07T00:06:56.674Z,100127.13
2019-05-07T00:09:29.061Z,100128.58
2019-05-07T00:12:04.699Z,100128.65
2019-05-07T00:14:34.585Z,100129.70
2019-05-07T00:17:06.142Z,100134.22
2019-05-07T00:19:37.575Z,100136.34
2019-05-07T00:22:08.949Z,100141.23
2019-05-07T00:24:42.436Z,100135.98
2019-05-07T00:27:13.497Z,100137.50
2019-05-07T00:29:44.863Z,100130.88
2019-05-07T00:32:16.223Z,100131.13
2019-05-07T00:34:54.291Z,100128.66
2019-05-07T00:37:27.037Z,100135.31
2019-05-07T00:39:59.953Z,100127.88
2019-05-07T00:42:32.897Z,100128.59
2019-05-07T00:45:23.904Z,100124.11
2019-05-07T00:47:55.168Z,100123.48
2019-05-07T00:50:28.092Z,100121.50
2019-05-07T00:52:59.484Z,100123.80
2019-05-07T00:55:32.585Z,100129.96
2019-05-07T00:58:04.182Z,100132.42
2019-05-07T01:00:35.558Z,100137.08
2019-05-07T01:03:06.952Z,100134.41
2019-05-07T01:05:39.284Z,100127.11
2019-05-07T01:08:12.996Z,100131.44
2019-05-07T01:10:43.862Z,100131.27
2019-05-07T01:13:15.235Z,100128.83
2019-05-07T01:15:46.637Z,100127.39
2019-05-07T01:18:18.042Z,100125.27
2019-05-07T01:20:49.439Z,100120.52
2019-05-07T01:23:22.914Z,100116.04
2019-05-07T01:25:53.837Z,100116.32
2019-05-07T01:28:25.316Z,100114.06
2019-05-07T01:30:56.755Z,100116.04
2019-05-07T01:33:44.767Z,100111.53
2019-05-07T01:36:17.633Z,100109.31
2019-05-07T01:38:49.023Z,100103.00
2019-05-07T01:41:20.403Z,100099.69
2019-05-07T01:43:52.423Z,100097.86
2019-05-07T01:46:24.797Z,100093.45
2019-05-07T01:48:57.559Z,100092.08
2019-05-07T01:51:29.195Z,100095.64
2019-05-07T01:54:02.195Z,100091.90
2019-05-07T01:56:33.679Z,100090.45
2019-05-07T01:59:05.111Z,100082.38
2019-05-07T02:01:36.431Z,100091.16
2019-05-07T02:04:15.556Z,100092.29
2019-05-07T02:07:06.639Z,100094.83
2019-05-07T02:09:39.635Z,100096.34
2019-05-07T02:12:13.207Z,100097.64
2019-05-07T02:14:44.705Z,100097.11
2019-05-07T02:17:17.183Z,100094.05
2019-05-07T02:19:48.611Z,100091.02
2019-05-07T02:22:22.712Z,100100.11
2019-05-07T02:24:54.334Z,100094.05
2019-05-07T02:27:25.717Z,100091.86
2019-05-07T02:29:57.102Z,100088.20
2019-05-07T02:32:28.519Z,100082.70
2019-05-07T02:34:59.873Z,100086.16
2019-05-07T02:37:41.847Z,100087.03
2019-05-07T02:40:14.201Z,100084.36
2019-05-07T02:42:44.536Z,100081.47
2019-05-07T02:45:35.607Z,100087.81
2019-05-07T02:48:07.018Z,100094.19
2019-05-07T02:50:49.247Z,100092.00
2019-05-07T02:53:22.844Z,100089.26
2019-05-07T02:55:55.984Z,100082.91
2019-05-07T02:58:27.336Z,100090.00
2019-05-07T03:00:58.768Z,100089.72
2019-05-07T03:03:33.217Z,100095.88
2019-05-07T03:06:03.298Z,100092.22
2019-05-07T03:08:34.848Z,100092.29
2019-05-07T03:11:06.199Z,100086.64
2019-05-07T03:13:37.551Z,100085.80
2019-05-07T03:16:08.941Z,100090.98
2019-05-07T03:18:43.523Z,100087.17
2019-05-07T03:21:15.013Z,100083.65
2019-05-07T03:23:53.875Z,100082.88
2019-05-07T03:26:26.758Z,100089.15
2019-05-07T03:28:59.817Z,100089.15
2019-05-07T03:31:36.087Z,100085.34
2019-05-07T03:34:07.609Z,100089.81
2019-05-07T03:36:46.677Z,100085.90
2019-05-07T03:39:14.634Z,100088.78
2019-05-07T03:41:46.399Z,100088.33
2019-05-07T03:44:35.322Z,100100.77
2019-05-07T03:47:17.423Z,100091.85
2019-05-07T03:49:49.655Z,100100.56
2019-05-07T03:52:24.447Z,100092.91
2019-05-07T03:54:56.168Z,100094.88
2019-05-07T03:57:26.979Z,100095.80
2019-05-07T03:59:58.039Z,100097.95
2019-05-07T04:02:32.888Z,100102.34
2019-05-07T04:05:04.388Z,100102.01
2019-05-07T04:07:35.570Z,100099.67
2019-05-07T04:10:10.014Z,100099.52
2019-05-07T04:12:44.305Z,100099.72
2019-05-07T04:15:19.154Z,100101.31
2019-05-07T04:17:49.158Z,100100.28
2019-05-07T04:20:23.664Z,100102.88
2019-05-07T04:22:53.890Z,100100.25
2019-05-07T04:25:43.666Z,100102.54
2019-05-07T04:28:16.621Z,100107.33
2019-05-07T04:30:48.115Z,100106.54
2019-05-07T04:33:20.409Z,100105.00
2019-05-07T04:35:53.790Z,100103.20
2019-05-07T04:38:26.220Z,100108.09
2019-05-07T04:40:57.597Z,100102.97
2019-05-07T04:43:28.919Z,100106.91
2019-05-07T04:46:03.179Z,100104.46
2019-05-07T04:48:34.361Z,100102.36
2019-05-07T04:51:07.469Z,100106.48
2019-05-07T04:53:38.936Z,100107.08
2019-05-07T04:56:23.813Z,100103.73
2019-05-07T04:58:55.413Z,100104.21
2019-05-07T05:01:27.778Z,100103.68
2019-05-07T05:03:58.947Z,100097.45
2019-05-07T05:06:32.731Z,100095.42
2019-05-07T05:09:05.054Z,100102.73
2019-05-07T05:11:38.046Z,100101.05
2019-05-07T05:14:09.576Z,100100.31
2019-05-07T05:16:52.457Z,100103.12
2019-05-07T05:19:24.204Z,100113.20
2019-05-07T05:22:03.227Z,100108.08
2019-05-07T05:24:36.553Z,100111.14
2019-05-07T05:27:08.309Z,100108.70
2019-05-07T05:32:46.062Z,100110.89
2019-05-07T05:35:22.458Z,100104.43
2019-05-07T05:38:02.992Z,100110.30
2019-05-07T05:40:34.382Z,100106.34
2019-05-07T05:43:27.195Z,100102.55
2019-05-07T05:46:06.175Z,100100.16
2019-05-07T05:48:37.590Z,100096.02
2019-05-07T05:51:11.885Z,100087.75
2019-05-07T05:53:44.992Z,100084.55
2019-05-07T05:56:22.893Z,100083.89
2019-05-07T05:58:58.382Z,100078.05
2019-05-07T06:01:42.672Z,100080.02
2019-05-07T06:04:24.252Z,100080.07
2019-05-07T06:07:08.820Z,100090.80
2019-05-07T06:09:32.752Z,100090.59
2019-05-07T06:12:09.011Z,100089.91
2019-05-07T06:14:42.514Z,100090.68
2019-05-07T06:17:15.659Z,100088.45
2019-05-07T06:20:04.636Z,100092.97
2019-05-07T06:22:46.520Z,100084.45
2019-05-07T06:25:19.465Z,100077.55
2019-05-07T06:28:02.046Z,100072.08
2019-05-07T06:30:42.004Z,100070.97
2019-05-07T06:33:13.549Z,100063.78
2019-05-07T06:35:44.302Z,100057.78
2019-05-07T06:38:15.742Z,100065.73
2019-05-07T06:40:52.086Z,100061.72
2019-05-07T06:43:26.764Z,100058.15
2019-05-07T06:46:01.874Z,100055.92
2019-05-07T06:48:42.533Z,100058.38
2019-05-07T06:51:17.648Z,100060.06
2019-05-07T06:53:51.727Z,100058.59
2019-05-07T06:56:23.126Z,100061.11
2019-05-07T06:59:06.384Z,100052.94
2019-05-07T07:01:48.154Z,100053.58
2019-05-07T07:04:22.516Z,100051.48
2019-05-07T07:07:26.654Z,100047.48
2019-05-07T07:09:52.967Z,100052.78
2019-05-07T07:12:27.376Z,100038.97
2019-05-07T07:15:03.397Z,100045.16
2019-05-07T18:06:52.216Z,100015.36
2019-05-07T18:16:02.993Z,100012.91
2019-05-07T18:18:34.655Z,100016.52
2019-05-07T18:21:05.970Z,100011.09
2019-05-07T18:23:37.274Z,100009.49
2019-05-07T18:26:08.659Z,100012.79
2019-05-07T18:28:41.703Z,100015.18
2019-05-07T18:31:15.762Z,100008.56
2019-05-07T18:33:47.750Z,100013.63
2019-05-07T18:36:19.115Z,100007.98
2019-05-07T18:38:52.697Z,100004.06
2019-05-07T18:41:23.569Z,100003.66
2019-05-07T18:43:54.908Z,100006.20
2019-05-07T18:46:26.198Z,100009.89
2019-05-07T18:48:57.519Z,100014.26
2019-05-07T18:51:28.893Z,100008.34
2019-05-07T18:54:02.302Z,100009.22
2019-05-07T18:56:34.543Z,99997.39
2019-05-07T18:59:07.272Z,100000.95
2019-05-07T19:01:42.196Z,100008.47
2019-05-07T19:04:13.303Z,99997.62
2019-05-07T19:06:44.527Z,100004.73
2019-05-07T19:09:15.976Z,100001.30
2019-05-07T19:11:47.348Z,100003.61
2019-05-07T19:14:18.773Z,100002.89
2019-05-07T19:16:52.412Z,99999.20
2019-05-07T19:19:23.129Z,99994.75
2019-05-07T19:21:55.963Z,100004.88
2019-05-07T19:24:40.825Z,99994.97
2019-05-07T19:27:02.218Z,99991.09
2019-05-07T19:29:34.202Z,99999.54
2019-05-07T19:32:07.009Z,99993.18
2019-05-07T19:34:38.278Z,99994.23
2019-05-07T19:37:09.521Z,99991.53
2019-05-07T19:39:42.851Z,99980.98
2019-05-07T19:42:13.785Z,99978.19
2019-05-07T19:44:45.065Z,99967.42
2019-05-07T19:47:16.729Z,99972.85
2019-05-07T19:49:47.989Z,99969.20
2019-05-07T19:52:19.275Z,99972.09
2019-05-07T19:54:58.740Z,99983.06
2019-05-07T19:57:35.182Z,99986.28
2019-05-07T20:00:12.028Z,99993.59
2019-05-07T20:02:47.211Z,99990.95
2019-05-07T20:05:18.473Z,99992.23
2019-05-07T20:07:53.332Z,99995.72
2019-05-07T20:10:24.177Z,99999.16
2019-05-07T20:12:55.418Z,100005.62
2019-05-07T20:15:26.820Z,100014.55
2019-05-07T20:17:58.138Z,100016.66
2019-05-07T20:20:29.564Z,100022.48
2019-05-07T20:23:02.562Z,100014.81
2019-05-07T20:25:34.186Z,100016.83
2019-05-07T20:28:05.512Z,100022.28
2019-05-07T20:30:36.803Z,100027.14
2019-05-07T20:33:08.141Z,100025.17
2019-05-07T20:35:41.905Z,100027.87
2019-05-07T20:38:12.735Z,100034.24
2019-05-07T20:40:44.021Z,100035.34
2019-05-07T20:43:14.806Z,100041.38
2019-05-07T20:45:45.891Z,100048.18
2019-05-07T20:48:16.708Z,100059.56
2019-05-07T20:50:47.790Z,100054.94
2019-05-07T20:53:21.836Z,100064.63
2019-05-07T20:55:57.916Z,100062.67
2019-05-07T20:58:29.278Z,100065.79
2019-05-07T21:01:02.801Z,100059.19
2019-05-07T21:03:33.912Z,100063.51
2019-05-07T21:06:04.636Z,100061.76
2019-05-07T21:08:35.676Z,100066.51
2019-05-07T21:11:07.062Z,100066.05
2019-05-07T21:13:41.732Z,100063.98
2019-05-07T21:16:12.680Z,100069.41
2019-05-07T21:18:44.231Z,100081.20
2019-05-07T21:21:15.531Z,100077.07
2019-05-07T21:23:46.902Z,100079.82
2019-05-07T21:26:18.286Z,100082.58
2019-05-07T21:28:49.672Z,100084.73
2019-05-07T21:31:22.803Z,100088.54
2019-05-07T21:33:54.094Z,100087.55
2019-05-07T21:36:25.452Z,100077.67
2019-05-07T21:38:56.764Z,100074.17
2019-05-07T21:41:28.129Z,100078.05
2019-05-07T21:43:59.406Z,100083.55
2019-05-07T21:46:32.807Z,100083.92
2019-05-07T21:49:03.797Z,100086.36
2019-05-07T21:51:35.203Z,100081.64
2019-05-07T21:54:08.161Z,100080.33
2019-05-07T21:56:54.591Z,100092.64
2019-05-07T21:59:27.643Z,100091.98
2019-05-07T22:02:03.554Z,100091.36
2019-05-07T22:04:34.893Z,100086.88
2019-05-07T22:07:06.266Z,100087.95
2019-05-07T22:09:37.617Z,100087.81
2019-05-07T22:12:09.092Z,100086.16
2019-05-07T22:14:39.787Z,100075.44
2019-05-07T22:17:12.752Z,100075.48
2019-05-07T22:19:44.189Z,100077.52
2019-05-07T22:22:15.557Z,100074.45
2019-05-07T22:24:49.424Z,100077.45
2019-05-07T22:27:22.440Z,100077.85
2019-05-07T22:29:53.827Z,100069.47
2019-05-07T22:32:32.732Z,100069.05
2019-05-07T22:35:06.553Z,100070.64
2019-05-07T22:37:39.378Z,100072.48
2019-05-07T22:40:15.050Z,100078.93
2019-05-07T22:42:47.863Z,100074.35
2019-05-07T22:45:19.211Z,100065.37
2019-05-07T22:47:52.518Z,100064.09
2019-05-07T22:50:23.659Z,100065.76
2019-05-07T22:52:55.021Z,100062.48
2019-05-07T22:55:26.374Z,100068.44
2019-05-07T22:58:03.290Z,100071.42
2019-05-07T23:00:36.203Z,100075.63
2019-05-07T23:03:07.696Z,100078.72
2019-05-07T23:05:39.091Z,100084.22
2019-05-07T23:08:12.659Z,100096.38
2019-05-07T23:10:45.017Z,100096.52
2019-05-07T23:13:18.154Z,100096.80
2019-05-07T23:15:53.850Z,100099.55
2019-05-07T23:18:28.891Z,100097.72
2019-05-07T23:21:00.253Z,100100.32
2019-05-07T23:23:32.545Z,100107.69
2019-05-07T23:26:03.960Z,100108.22
2019-05-07T23:28:35.246Z,100113.86
2019-05-07T23:31:07.559Z,100116.45
2019-05-07T23:33:38.933Z,100116.66
2019-05-07T23:36:10.260Z,100117.72
2019-05-07T23:38:42.630Z,100123.22
2019-05-07T23:41:22.300Z,100124.73
2019-05-07T23:44:13.548Z,100147.58
2019-05-07T23:46:45.208Z,100158.27
2019-05-07T23:49:17.225Z,100165.21
2019-05-07T23:51:48.578Z,100165.20
2019-05-07T23:54:23.009Z,100167.84
2019-05-07T23:57:05.935Z,100162.80
2019-05-07T23:59:28.190Z,100151.94
